Time;durP1;ratioP1;P1;durP2;ratioP2;P2;SDS_P1;SDS_P2;PMS_P1;PMS_P2;Temp;Humidity;BMP_temperature;BMP_pressure;BME280_temperature;BME280_humidity;BME280_pressure;Samples;Min_cycle;Max_cycle;Signal;HPM_P1;HPM_P2
2022/05/08 00:00:06;;;;;;;7.33;5.87;;;;;;;13.26;86.18;100667.25;5044532;28;20219;-66
2022/05/08 00:02:31;;;;;;;5.63;5.13;;;;;;;13.15;87.41;100669.59;5085935;28;20173;-65
2022/05/08 00:04:57;;;;;;;7.80;6.03;;;;;;;13.16;86.92;100666.06;5052925;28;20274;-65
2022/05/08 00:07:23;;;;;;;7.13;6.43;;;;;;;13.19;87.19;100663.34;5069094;28;20181;-65
2022/05/08 00:09:49;;;;;;;7.83;6.47;;;;;;;13.05;88.28;100659.78;5068962;28;20176;-65
2022/05/08 00:12:16;;;;;;;7.73;5.63;;;;;;;13.06;88.41;100656.28;5075976;28;20230;-65
2022/05/08 00:14:43;;;;;;;6.93;6.23;;;;;;;12.99;88.85;100656.72;5053516;28;20243;-65
2022/05/08 00:17:13;;;;;;;6.53;6.00;;;;;;;12.94;89.52;100658.69;5052296;28;20181;-65
2022/05/08 00:19:44;;;;;;;7.10;6.40;;;;;;;12.98;89.33;100657.63;5052414;28;20200;-66
2022/05/08 00:22:13;;;;;;;6.73;6.03;;;;;;;12.90;89.99;100655.47;5042059;28;20308;-65
2022/05/08 00:24:38;;;;;;;6.67;5.97;;;;;;;12.94;89.61;100649.22;5052404;28;20185;-65
2022/05/08 00:27:04;;;;;;;6.40;5.80;;;;;;;12.97;89.44;100645.63;5051808;28;20187;-65
2022/05/08 00:29:29;;;;;;;6.40;5.80;;;;;;;12.87;90.77;100658.22;5052379;28;20227;-65
2022/05/08 00:31:55;;;;;;;6.87;6.07;;;;;;;12.81;91.33;100651.63;5061031;28;20686;-66
2022/05/08 00:34:20;;;;;;;6.67;5.50;;;;;;;12.89;90.80;100649.47;5055503;28;20181;-67
2022/05/08 00:36:46;;;;;;;6.43;5.83;;;;;;;12.83;91.05;100651.56;5052947;28;20559;-65
2022/05/08 00:39:12;;;;;;;6.80;6.20;;;;;;;12.88;90.52;100646.97;5053487;28;20165;-65
2022/05/08 00:41:37;;;;;;;7.30;6.60;;;;;;;12.95;90.47;100650.88;5044769;28;20256;-65
2022/05/08 00:44:03;;;;;;;5.73;5.23;;;;;;;13.03;90.19;100648.69;5056606;28;20205;-65
2022/05/08 00:46:29;;;;;;;6.80;6.00;;;;;;;13.14;89.37;100647.28;5050548;28;20275;-65
2022/05/08 00:48:55;;;;;;;6.20;5.57;;;;;;;13.20;88.90;100650.31;5053425;28;20184;-65
2022/05/08 00:51:21;;;;;;;6.60;5.93;;;;;;;13.24;88.08;100650.97;5055428;28;20423;-67
2022/05/08 00:53:53;;;;;;;7.77;6.17;;;;;;;13.23;87.93;100654.47;5044200;28;20222;-66
2022/05/08 00:56:19;;;;;;;6.53;5.93;;;;;;;13.21;88.19;100646.81;5032798;28;21151;-66
2022/05/08 00:58:48;;;;;;;8.47;6.97;;;;;;;13.25;88.10;100650.06;5033440;28;20174;-65
2022/05/08 01:01:14;;;;;;;7.10;6.27;;;;;;;13.10;88.83;100646.59;5050934;28;20251;-65
2022/05/08 01:03:41;;;;;;;7.00;6.30;;;;;;;12.95;90.04;100647.44;5038338;28;20652;-66
2022/05/08 01:06:08;;;;;;;10.40;6.30;;;;;;;12.88;91.47;100652.13;5031295;28;20193;-65
2022/05/08 01:08:36;;;;;;;10.30;6.30;;;;;;;12.89;91.22;100643.47;5031732;28;20182;-65
2022/05/08 01:11:03;;;;;;;6.90;6.30;;;;;;;12.97;91.22;100648.22;5038136;28;20240;-66
2022/05/08 01:13:28;;;;;;;7.67;6.97;;;;;;;12.93;91.29;100636.41;5056252;28;20181;-65
2022/05/08 01:15:56;;;;;;;8.23;6.77;;;;;;;12.72;92.50;100639.25;5051369;28;20654;-65
2022/05/08 01:18:22;;;;;;;6.87;6.23;;;;;;;12.69;93.48;100637.66;5050844;28;20178;-66
2022/05/08 01:20:48;;;;;;;7.57;6.30;;;;;;;12.69;93.65;100634.22;5048181;28;20255;-66
2022/05/08 01:23:15;;;;;;;8.23;6.80;;;;;;;12.68;93.26;100636.00;5067950;28;20556;-66
2022/05/08 01:25:52;;;;;;;11.30;7.13;;;;;;;12.68;92.53;100636.00;5051151;28;20272;-66
2022/05/08 01:28:19;;;;;;;8.27;6.73;;;;;;;12.68;92.84;100630.81;5050843;28;20227;-66
2022/05/08 01:30:48;;;;;;;7.80;7.10;;;;;;;12.58;93.66;100633.06;5040709;28;20291;-65
2022/05/08 01:33:14;;;;;;;7.50;6.70;;;;;;;12.58;94.17;100634.84;5057699;28;20268;-66
2022/05/08 01:35:40;;;;;;;7.53;6.83;;;;;;;12.62;93.83;100627.75;5050800;28;20211;-66
2022/05/08 01:38:07;;;;;;;10.77;6.70;;;;;;;12.62;93.49;100625.19;5050831;28;20628;-66
2022/05/08 01:40:33;;;;;;;7.67;6.87;;;;;;;12.57;93.78;100628.00;5039081;28;20240;-66
2022/05/08 01:42:59;;;;;;;8.00;7.10;;;;;;;12.42;95.41;100625.34;5051529;28;20185;-66
2022/05/08 01:45:24;;;;;;;7.73;6.93;;;;;;;12.32;96.56;100626.75;5051121;28;20181;-64
2022/05/08 01:50:34;;;;;;;7.23;6.53;;;;;;;12.24;97.73;100631.47;5043478;28;20751;-65
2022/05/08 01:53:00;;;;;;;7.80;7.00;;;;;;;12.23;97.99;100637.53;5075843;28;20181;-65
2022/05/08 01:55:25;;;;;;;7.70;6.97;;;;;;;12.08;99.40;100628.88;5052072;28;20658;-68
2022/05/08 01:57:53;;;;;;;8.17;7.20;;;;;;;12.07;99.64;100630.63;5051390;28;20657;-65
2022/05/08 02:00:19;;;;;;;9.23;6.73;;;;;;;12.12;98.91;100632.97;5045938;28;20250;-66
2022/05/08 02:02:48;;;;;;;7.60;6.70;;;;;;;12.12;99.19;100635.56;5079584;28;20544;-65
2022/05/08 02:05:14;;;;;;;9.33;7.27;;;;;;;12.09;99.11;100633.13;5034698;28;20267;-66
2022/05/08 02:07:39;;;;;;;9.00;6.80;;;;;;;11.91;100.00;100635.72;5050026;28;20176;-66
2022/05/08 02:10:05;;;;;;;8.13;7.37;;;;;;;12.00;100.00;100631.84;5042655;28;20170;-66
2022/05/08 02:12:30;;;;;;;8.57;7.70;;;;;;;12.01;100.00;100638.69;5066725;28;20648;-65
2022/05/08 02:14:56;;;;;;;10.63;7.27;;;;;;;11.98;100.00;100638.00;5051758;28;20227;-65
2022/05/08 02:17:22;;;;;;;8.03;7.27;;;;;;;11.89;100.00;100644.44;5051295;28;20173;-65
2022/05/08 02:19:47;;;;;;;8.63;7.37;;;;;;;11.84;100.00;100636.94;5051738;28;20185;-66
2022/05/08 02:22:12;;;;;;;10.30;6.90;;;;;;;11.88;100.00;100640.19;5056749;28;20312;-66
2022/05/08 02:24:38;;;;;;;10.13;7.50;;;;;;;11.85;100.00;100636.03;5050587;28;20181;-66
2022/05/08 02:27:03;;;;;;;8.40;7.30;;;;;;;11.86;100.00;100632.53;5051536;28;20182;-66
2022/05/08 02:29:29;;;;;;;9.63;7.30;;;;;;;11.83;100.00;100631.88;5051578;28;20200;-66
2022/05/08 02:31:54;;;;;;;8.67;6.97;;;;;;;11.77;100.00;100633.84;5059995;28;20310;-65
2022/05/08 02:34:19;;;;;;;8.30;7.43;;;;;;;11.71;100.00;100635.88;5052646;28;20635;-66
2022/05/08 02:36:45;;;;;;;9.83;6.80;;;;;;;11.76;100.00;100636.50;5051120;28;20263;-66
2022/05/08 02:39:10;;;;;;;11.30;8.63;;;;;;;11.68;100.00;100638.63;5050475;28;20644;-65
2022/05/08 02:41:35;;;;;;;9.40;7.50;;;;;;;11.57;100.00;100639.16;5053006;28;20239;-65
2022/05/08 02:44:01;;;;;;;10.03;7.93;;;;;;;11.53;100.00;100640.25;5055225;28;20181;-65
2022/05/08 02:46:26;;;;;;;8.47;7.60;;;;;;;11.49;100.00;100641.31;5054998;28;20201;-65
2022/05/08 02:48:51;;;;;;;9.40;7.33;;;;;;;11.53;100.00;100640.25;5032679;28;20178;-64
2022/05/08 02:51:16;;;;;;;8.67;7.87;;;;;;;11.49;100.00;100639.56;5041244;28;20315;-65
2022/05/08 02:53:42;;;;;;;8.60;7.73;;;;;;;11.42;100.00;100639.03;5043722;28;20325;-66
2022/05/08 02:58:51;;;;;;;8.03;7.23;;;;;;;11.36;100.00;100648.78;5031962;28;20185;-66
2022/05/08 03:01:16;;;;;;;8.40;7.57;;;;;;;11.32;100.00;100645.53;5030446;28;20225;-65
2022/05/08 03:03:41;;;;;;;9.33;8.07;;;;;;;11.29;100.00;100640.53;5043937;28;20174;-66
2022/05/08 03:06:07;;;;;;;9.43;7.50;;;;;;;11.26;100.00;100644.09;5031153;28;20186;-65
2022/05/08 03:08:32;;;;;;;8.47;7.70;;;;;;;11.28;100.00;100642.28;5031657;28;20178;-64
2022/05/08 03:13:42;;;;;;;8.93;8.07;;;;;;;11.19;100.00;100652.19;5056003;28;20204;-66
2022/05/08 03:16:10;;;;;;;9.43;7.90;;;;;;;11.07;100.00;100653.63;5060567;28;20236;-65
2022/05/08 03:18:38;;;;;;;10.00;9.10;;;;;;;11.12;100.00;100655.03;5060511;28;20181;-65
2022/05/08 03:21:03;;;;;;;11.00;8.90;;;;;;;11.11;100.00;100661.13;5070890;28;20235;-66
2022/05/08 03:23:28;;;;;;;9.47;8.50;;;;;;;11.10;100.00;100662.03;5069957;28;20193;-66
2022/05/08 03:25:54;;;;;;;10.67;8.33;;;;;;;11.13;100.00;100667.03;5053073;28;20186;-66
2022/05/08 03:28:19;;;;;;;9.80;8.63;;;;;;;11.04;100.00;100672.63;5069026;28;20660;-66
2022/05/08 03:30:44;;;;;;;9.43;8.47;;;;;;;11.05;100.00;100668.28;5029523;28;20698;-66
2022/05/08 03:33:10;;;;;;;9.87;8.57;;;;;;;11.00;100.00;100672.84;5065080;28;20180;-65
2022/05/08 03:35:40;;;;;;;10.20;8.90;;;;;;;10.93;100.00;100669.72;5054583;28;20638;-65
2022/05/08 03:38:06;;;;;;;9.37;8.47;;;;;;;10.97;100.00;100668.66;5052916;28;20538;-65
2022/05/08 03:40:33;;;;;;;9.63;8.27;;;;;;;10.92;100.00;100673.19;5042632;28;20232;-65
2022/05/08 03:42:58;;;;;;;8.90;8.10;;;;;;;10.92;100.00;100670.63;5023662;28;20184;-65
2022/05/08 03:45:24;;;;;;;10.03;9.00;;;;;;;10.85;100.00;100676.97;5045852;28;20185;-66
2022/05/08 03:47:53;;;;;;;8.70;7.83;;;;;;;10.81;100.00;100671.94;5054007;28;20182;-65
2022/05/08 03:50:19;;;;;;;9.23;8.07;;;;;;;10.86;100.00;100682.03;5063865;28;20177;-65
2022/05/08 03:52:44;;;;;;;9.53;8.60;;;;;;;10.87;100.00;100673.41;5067404;28;20181;-66
2022/05/08 03:55:11;;;;;;;10.17;9.27;;;;;;;10.87;100.00;100675.97;5054340;28;20177;-65
2022/05/08 03:57:37;;;;;;;9.63;8.63;;;;;;;10.90;100.00;100681.00;5053424;28;20239;-65
2022/05/08 04:00:03;;;;;;;10.80;9.67;;;;;;;10.91;100.00;100674.91;5047793;28;20628;-66
2022/05/08 04:02:29;;;;;;;10.13;9.10;;;;;;;10.95;100.00;100676.47;5069234;28;20190;-66
2022/05/08 04:04:54;;;;;;;9.57;8.67;;;;;;;11.00;100.00;100683.13;5054358;28;20527;-65
2022/05/08 04:07:20;;;;;;;9.90;8.90;;;;;;;11.04;100.00;100684.66;5054148;28;20651;-66
2022/05/08 04:09:45;;;;;;;9.73;8.83;;;;;;;11.10;100.00;100686.94;5069631;28;20200;-64
2022/05/08 04:12:10;;;;;;;10.33;8.70;;;;;;;10.98;100.00;100685.78;5075856;28;20272;-64
2022/05/08 04:14:36;;;;;;;11.23;9.00;;;;;;;11.01;100.00;100687.38;5053828;28;20216;-65
2022/05/08 04:17:01;;;;;;;9.03;8.13;;;;;;;11.06;100.00;100678.50;5052366;28;20185;-66
2022/05/08 04:19:27;;;;;;;9.43;8.07;;;;;;;11.02;100.00;100673.59;5052484;28;20189;-66
2022/05/08 04:24:16;;;;;;;10.53;9.43;;;;;;;11.20;100.00;100688.19;5057150;28;20232;-66
2022/05/08 04:24:40;;;;;;;8.57;7.87;;;;;;;11.34;100.00;100684.09;5053767;28;20188;-65
2022/05/08 04:27:06;;;;;;;8.87;8.07;;;;;;;11.46;100.00;100684.34;5053244;28;20213;-66
2022/05/08 04:29:31;;;;;;;10.13;8.90;;;;;;;11.54;100.00;100693.44;5053573;28;20173;-65
2022/05/08 04:31:57;;;;;;;10.10;8.87;;;;;;;11.66;100.00;100687.69;5058160;28;20315;-65
2022/05/08 04:34:22;;;;;;;9.60;8.60;;;;;;;11.71;100.00;100696.00;5069154;28;20177;-67
2022/05/08 04:36:48;;;;;;;8.90;8.00;;;;;;;11.65;100.00;100691.16;5052996;28;20192;-65
2022/05/08 04:39:13;;;;;;;9.03;7.63;;;;;;;11.76;100.00;100698.38;5053375;28;20227;-65
2022/05/08 04:41:38;;;;;;;8.53;7.43;;;;;;;11.63;100.00;100695.56;5058458;28;20319;-67
2022/05/08 04:44:04;;;;;;;8.73;7.80;;;;;;;11.71;100.00;100706.31;5058650;28;20641;-66
2022/05/08 04:46:30;;;;;;;8.33;7.27;;;;;;;11.91;100.00;100700.16;5068306;28;20200;-66
2022/05/08 04:48:55;;;;;;;8.20;7.10;;;;;;;12.09;100.00;100701.00;5053509;28;20195;-66
2022/05/08 04:51:20;;;;;;;9.00;8.10;;;;;;;12.25;100.00;100702.78;5064225;28;20352;-66
2022/05/08 04:53:46;;;;;;;8.70;7.80;;;;;;;12.39;100.00;100700.34;5074229;28;20213;-66
2022/05/08 04:56:11;;;;;;;8.67;7.80;;;;;;;12.58;100.00;100707.91;5052978;28;20711;-65
2022/05/08 04:58:36;;;;;;;7.93;7.00;;;;;;;12.51;100.00;100711.72;5053330;28;20259;-65
2022/05/08 05:01:01;;;;;;;8.30;7.53;;;;;;;12.50;100.00;100706.66;5058663;28;20309;-65
2022/05/08 05:03:27;;;;;;;10.17;8.03;;;;;;;12.59;100.00;100713.94;5069155;28;20184;-67
2022/05/08 05:05:53;;;;;;;9.97;7.73;;;;;;;12.84;100.00;100717.78;5053338;28;20854;-66
2022/05/08 05:08:21;;;;;;;8.50;7.60;;;;;;;13.04;98.98;100725.25;5052061;28;20537;-66
2022/05/08 05:10:47;;;;;;;8.60;7.30;;;;;;;13.21;97.13;100719.16;5054149;28;20305;-67
2022/05/08 05:13:12;;;;;;;9.63;7.87;;;;;;;13.37;94.84;100724.34;5061943;28;20165;-66
2022/05/08 05:15:38;;;;;;;8.57;7.63;;;;;;;13.43;93.46;100717.16;5052503;28;20225;-67
2022/05/08 05:18:03;;;;;;;9.63;7.80;;;;;;;13.53;92.79;100724.31;5052331;28;20536;-66
2022/05/08 05:20:29;;;;;;;7.97;7.13;;;;;;;13.67;92.07;100731.25;5045571;28;20224;-66
2022/05/08 05:22:58;;;;;;;8.83;6.63;;;;;;;13.69;91.76;100732.00;5064691;28;20200;-67
2022/05/08 05:25:23;;;;;;;6.93;6.33;;;;;;;13.72;91.01;100737.00;5052959;28;20169;-66
2022/05/08 05:27:49;;;;;;;8.30;6.90;;;;;;;13.74;90.74;100736.06;5052200;28;20191;-65
2022/05/08 05:30:16;;;;;;;7.57;6.80;;;;;;;13.73;90.90;100745.59;5043902;28;20169;-66
2022/05/08 05:32:41;;;;;;;9.03;6.53;;;;;;;13.72;89.52;100739.56;5065619;28;20170;-65
2022/05/08 05:35:07;;;;;;;9.10;6.57;;;;;;;13.48;91.38;100744.41;5052446;28;20181;-66
2022/05/08 05:37:32;;;;;;;8.87;7.10;;;;;;;13.80;90.61;100751.25;5049742;28;20260;-67
2022/05/08 05:39:58;;;;;;;8.13;7.13;;;;;;;13.98;88.63;100749.31;5042326;28;20186;-67
2022/05/08 05:42:23;;;;;;;9.27;7.53;;;;;;;14.03;87.28;100748.13;5053901;28;20238;-67
2022/05/08 05:44:49;;;;;;;10.70;7.30;;;;;;;13.87;87.39;100745.63;5031946;28;20483;-65
2022/05/08 05:49:58;;;;;;;9.40;6.60;;;;;;;14.08;86.47;100752.19;5044722;28;20211;-65
2022/05/08 05:52:23;;;;;;;7.33;6.63;;;;;;;14.15;86.34;100754.34;5073455;28;20241;-65
2022/05/08 05:54:48;;;;;;;7.83;7.03;;;;;;;14.10;86.15;100750.38;5050568;28;20235;-65
2022/05/08 05:57:14;;;;;;;9.73;7.00;;;;;;;14.10;86.67;100756.34;5047443;28;20702;-67
2022/05/08 05:59:39;;;;;;;7.53;6.67;;;;;;;14.38;85.79;100759.91;5031761;28;20701;-67
2022/05/08 06:02:04;;;;;;;7.23;6.53;;;;;;;14.53;84.44;100758.97;5053553;28;20689;-67
2022/05/08 06:04:29;;;;;;;9.07;6.70;;;;;;;14.87;82.79;100761.28;5066335;28;20224;-66
2022/05/08 06:06:55;;;;;;;11.90;7.00;;;;;;;14.92;81.43;100768.78;5063009;28;20234;-65
2022/05/08 06:09:20;;;;;;;9.97;6.67;;;;;;;14.93;81.02;100768.66;5050138;28;20551;-66
2022/05/08 06:11:46;;;;;;;9.47;7.13;;;;;;;15.08;80.74;100766.06;5068258;28;20224;-66
2022/05/08 06:14:11;;;;;;;9.77;6.33;;;;;;;15.20;79.76;100765.28;5046143;28;20181;-65
2022/05/08 06:16:36;;;;;;;7.30;6.60;;;;;;;15.07;77.79;100772.16;5063157;28;20229;-65
2022/05/08 06:19:02;;;;;;;6.70;5.83;;;;;;;15.01;79.27;100776.81;5063761;28;20194;-65
2022/05/08 06:21:27;;;;;;;8.07;6.10;;;;;;;15.12;79.92;100772.69;5063149;28;20746;-67
2022/05/08 06:23:55;;;;;;;8.20;6.40;;;;;;;15.43;76.56;100765.56;5061380;28;20182;-65
2022/05/08 06:26:21;;;;;;;6.50;5.90;;;;;;;15.72;75.92;100774.06;5050981;28;20486;-68
2022/05/08 06:28:48;;;;;;;7.90;6.63;;;;;;;15.92;73.72;100779.72;5050025;28;20189;-68
2022/05/08 06:31:16;;;;;;;6.13;5.60;;;;;;;16.24;71.90;100781.94;5049665;28;20223;-68
2022/05/08 06:33:43;;;;;;;10.27;6.60;;;;;;;16.27;70.62;100779.13;5043467;28;20597;-68
2022/05/08 06:36:08;;;;;;;7.27;6.57;;;;;;;16.68;68.76;100782.41;5076482;28;20182;-67
2022/05/08 06:38:34;;;;;;;15.50;6.73;;;;;;;17.09;66.37;100782.13;5044402;28;20257;-57
2022/05/08 06:40:59;;;;;;;7.50;6.17;;;;;;;17.37;64.65;100780.13;5056796;28;20324;-57
2022/05/08 06:43:24;;;;;;;6.27;5.67;;;;;;;17.89;61.83;100778.06;5056861;28;20175;-57
2022/05/08 06:45:50;;;;;;;6.23;5.57;;;;;;;18.98;57.60;100782.91;5070468;28;20277;-63
2022/05/08 06:48:15;;;;;;;7.20;5.93;;;;;;;19.72;54.31;100779.56;5054791;28;20714;-65
2022/05/08 06:50:40;;;;;;;7.30;5.63;;;;;;;20.35;51.36;100783.09;5055017;28;20670;-65
2022/05/08 06:53:06;;;;;;;6.30;5.67;;;;;;;21.11;49.29;100785.25;5077030;28;20169;-63
2022/05/08 06:55:33;;;;;;;5.50;5.00;;;;;;;20.85;48.63;100792.78;5053290;28;20181;-64
2022/05/08 06:57:59;;;;;;;6.87;5.60;;;;;;;20.87;49.10;100789.06;5054952;28;20190;-63
2022/05/08 07:03:08;;;;;;;6.03;4.83;;;;;;;21.08;47.33;100786.38;5065699;28;20184;-64
2022/05/08 07:05:40;;;;;;;5.30;4.80;;;;;;;21.49;46.84;100786.25;5054013;28;20553;-63
2022/05/08 07:08:05;;;;;;;5.20;4.80;;;;;;;22.50;44.64;100798.06;5070376;28;20272;-63
2022/05/08 07:10:31;;;;;;;5.67;5.00;;;;;;;23.67;41.67;100793.88;5052685;28;20314;-63
2022/05/08 07:12:56;;;;;;;6.57;5.37;;;;;;;24.24;39.75;100793.44;5079595;28;20173;-64
2022/05/08 07:15:22;;;;;;;5.22;4.03;;;;;;;24.36;39.35;100803.69;5045876;28;20631;-64
2022/05/08 07:17:47;;;;;;;5.15;4.45;;;;;;;24.00;40.46;100809.88;5067216;28;20177;-63
2022/05/08 07:20:12;;;;;;;6.72;4.57;;;;;;;23.16;42.12;100810.16;5046282;28;20662;-64
2022/05/08 07:22:38;;;;;;;5.18;4.68;;;;;;;24.08;40.13;100804.69;5053815;28;20216;-63
2022/05/08 07:25:03;;;;;;;5.53;5.03;;;;;;;23.49;41.04;100813.09;5036900;28;20182;-62
2022/05/08 07:27:30;;;;;;;6.20;4.75;;;;;;;23.28;41.80;100812.56;5054236;28;20188;-63
2022/05/08 07:29:56;;;;;;;5.00;4.55;;;;;;;24.26;40.16;100807.25;5054914;28;20177;-63
2022/05/08 07:32:21;;;;;;;5.43;4.90;;;;;;;25.50;38.31;100812.09;5039527;28;20228;-62
2022/05/08 07:37:31;;;;;;;5.63;5.15;;;;;;;23.31;41.99;100813.09;5053489;28;20234;-64
2022/05/08 07:39:56;;;;;;;6.32;5.72;;;;;;;24.21;39.95;100809.50;5054738;28;20170;-62
2022/05/08 07:42:21;;;;;;;5.10;4.65;;;;;;;24.52;40.04;100810.81;5059434;28;20224;-64
2022/05/08 07:44:46;;;;;;;4.97;4.47;;;;;;;25.50;37.83;100810.25;5054524;28;20320;-63
2022/05/08 07:47:13;;;;;;;5.68;4.88;;;;;;;24.28;39.73;100812.34;5054109;28;20177;-63
2022/05/08 07:49:39;;;;;;;5.53;5.03;;;;;;;24.38;39.74;100818.31;5054535;28;20191;-63
2022/05/08 07:52:04;;;;;;;5.28;4.78;;;;;;;25.00;38.33;100808.56;5059829;28;20228;-63
2022/05/08 07:54:29;;;;;;;5.80;4.63;;;;;;;24.25;39.65;100816.13;5054244;28;20184;-64
2022/05/08 07:56:55;;;;;;;7.93;4.65;;;;;;;23.97;40.93;100816.28;5053673;28;20223;-63
2022/05/08 07:59:20;;;;;;;5.43;4.93;;;;;;;24.30;39.95;100813.03;5054275;28;20182;-63
2022/05/08 08:01:46;;;;;;;6.35;4.82;;;;;;;25.07;38.26;100820.91;5042476;28;20237;-64
2022/05/08 08:04:12;;;;;;;4.95;4.55;;;;;;;25.11;38.11;100824.03;5054098;28;20181;-64
2022/05/08 08:06:37;;;;;;;8.02;5.72;;;;;;;24.70;39.40;100819.47;5053635;28;20760;-63
2022/05/08 08:09:04;;;;;;;5.20;4.80;;;;;;;27.29;36.01;100825.84;5054246;28;20284;-63
2022/05/08 08:11:31;;;;;;;5.75;5.15;;;;;;;27.60;33.58;100828.47;5044896;28;20228;-63
2022/05/08 08:13:57;;;;;;;5.95;5.18;;;;;;;26.62;35.54;100821.91;5057896;28;20203;-64
2022/05/08 08:16:22;;;;;;;6.30;5.60;;;;;;;25.59;37.15;100824.28;5053903;28;20688;-64
2022/05/08 08:18:48;;;;;;;5.43;4.93;;;;;;;25.00;37.66;100822.53;5054089;28;20173;-62
2022/05/08 08:21:16;;;;;;;6.18;5.18;;;;;;;25.49;36.75;100827.06;5055396;28;20232;-63
2022/05/08 08:23:42;;;;;;;5.75;5.15;;;;;;;24.85;37.85;100835.47;5059077;28;20174;-64
2022/05/08 08:26:10;;;;;;;5.55;5.05;;;;;;;24.04;39.44;100834.88;5052096;28;20177;-63
2022/05/08 08:28:36;;;;;;;5.93;4.78;;;;;;;24.52;39.11;100835.28;5054101;28;20247;-63
2022/05/08 08:31:02;;;;;;;7.30;5.57;;;;;;;23.61;40.40;100839.13;5048225;28;20232;-63
2022/05/08 08:33:30;;;;;;;6.63;5.15;;;;;;;24.08;39.58;100828.34;5043451;28;20563;-64
2022/05/08 08:35:55;;;;;;;5.75;5.25;;;;;;;24.50;39.10;100834.66;5053706;28;20587;-64
2022/05/08 08:38:21;;;;;;;5.80;5.10;;;;;;;23.93;40.97;100835.97;5052067;28;20181;-64
2022/05/08 08:40:49;;;;;;;5.05;4.50;;;;;;;23.39;41.37;100835.16;5048727;28;20229;-64
2022/05/08 08:43:18;;;;;;;7.38;4.85;;;;;;;23.95;40.49;100839.25;5063327;28;20188;-64
2022/05/08 08:48:34;;;;;;;9.95;5.28;;;;;;;25.19;37.50;100839.00;5053858;28;20185;-64
2022/05/08 08:51:00;;;;;;;5.47;4.88;;;;;;;24.28;39.72;100836.81;5041192;28;20243;-64
2022/05/08 08:53:26;;;;;;;7.10;4.82;;;;;;;24.11;39.36;100846.44;5059639;28;20182;-63
2022/05/08 08:55:53;;;;;;;5.55;5.00;;;;;;;24.92;38.07;100836.47;5052086;28;20231;-64
2022/05/08 08:58:20;;;;;;;5.85;4.25;;;;;;;25.61;36.86;100831.03;5051617;28;20178;-64
2022/05/08 09:00:47;;;;;;;4.72;4.32;;;;;;;24.58;37.84;100839.13;5048481;28;20278;-64
2022/05/08 09:03:18;;;;;;;5.28;4.75;;;;;;;25.31;36.82;100835.06;5051889;28;20188;-63
2022/05/08 09:05:44;;;;;;;4.78;4.28;;;;;;;25.09;37.26;100836.50;5051574;28;20197;-64
2022/05/08 09:08:28;;;;;;;6.60;5.07;;;;;;;24.93;37.48;100837.28;5051587;28;20628;-63
2022/05/08 09:10:58;;;;;;;5.85;5.20;;;;;;;24.87;36.69;100828.25;5049175;28;20256;-63
2022/05/08 09:13:26;;;;;;;7.90;4.72;;;;;;;25.23;36.30;100840.31;5051679;28;20170;-63
2022/05/08 09:16:02;;;;;;;6.03;5.53;;;;;;;26.22;34.75;100837.72;5052957;28;20217;-64
2022/05/08 09:18:28;;;;;;;4.82;4.43;;;;;;;26.53;32.87;100847.50;5051214;28;20215;-63
2022/05/08 09:20:57;;;;;;;5.95;5.30;;;;;;;26.23;34.02;100834.94;5040979;28;20232;-64
2022/05/08 09:23:23;;;;;;;5.50;5.00;;;;;;;25.92;34.10;100834.78;5052222;28;20197;-64
2022/05/08 09:26:02;;;;;;;4.95;4.55;;;;;;;27.79;31.62;100832.41;5052536;28;20260;-63
2022/05/08 09:28:34;;;;;;;5.07;4.68;;;;;;;26.61;33.91;100836.94;5047614;28;20169;-63
2022/05/08 09:31:02;;;;;;;5.50;4.97;;;;;;;26.25;34.51;100832.94;5040036;28;20240;-63
2022/05/08 09:33:48;;;;;;;5.15;4.57;;;;;;;25.91;34.28;100833.97;5048986;28;20638;-63
2022/05/08 09:36:19;;;;;;;5.13;4.55;;;;;;;25.94;34.91;100840.72;5039089;28;20189;-64
2022/05/08 09:38:59;;;;;;;4.65;4.20;;;;;;;26.34;33.53;100833.72;5051098;28;20185;-63
2022/05/08 09:41:29;;;;;;;6.10;4.95;;;;;;;26.02;34.48;100827.50;5051970;28;20287;-64
2022/05/08 09:44:07;;;;;;;6.43;5.13;;;;;;;24.89;36.49;100834.16;5067719;28;20181;-64
2022/05/08 09:46:43;;;;;;;7.38;5.03;;;;;;;25.34;36.75;100821.59;5050502;28;20616;-65
2022/05/08 09:49:11;;;;;;;5.78;4.93;;;;;;;25.48;35.91;100824.56;5052217;28;20892;-64
2022/05/08 09:51:37;;;;;;;5.38;4.72;;;;;;;24.63;37.78;100815.78;5043531;28;20255;-64
2022/05/08 09:54:02;;;;;;;5.60;5.10;;;;;;;25.90;35.50;100813.03;5055819;28;20208;-64
2022/05/08 09:56:28;;;;;;;5.55;5.05;;;;;;;25.85;34.83;100818.81;5051677;28;20616;-63
2022/05/08 09:58:54;;;;;;;6.25;5.07;;;;;;;25.90;35.83;100823.56;5050679;28;20196;-64
2022/05/08 10:01:19;;;;;;;6.28;5.68;;;;;;;25.49;35.75;100821.81;5051452;28;20232;-63
2022/05/08 10:03:46;;;;;;;5.63;5.13;;;;;;;26.53;33.40;100813.22;5057203;28;20674;-64
2022/05/08 10:06:12;;;;;;;6.78;4.63;;;;;;;26.58;33.61;100816.16;5049873;28;20181;-64
2022/05/08 10:08:38;;;;;;;7.63;5.65;;;;;;;25.83;34.77;100823.44;5051787;28;20627;-63
2022/05/08 10:13:57;;;;;;;5.90;4.47;;;;;;;26.61;33.38;100812.34;5056389;28;20199;-65
2022/05/08 10:16:48;;;;;;;5.13;4.63;;;;;;;28.34;31.28;100817.16;5051089;28;20221;-64
2022/05/08 10:19:20;;;;;;;5.75;4.40;;;;;;;28.27;31.16;100818.06;5051338;28;20181;-64
2022/05/08 10:21:57;;;;;;;5.50;5.00;;;;;;;26.71;33.52;100821.72;5056987;28;20223;-64
2022/05/08 10:24:34;;;;;;;6.95;5.13;;;;;;;27.31;32.37;100821.22;5053121;28;20519;-65
2022/05/08 10:27:08;;;;;;;5.38;4.88;;;;;;;26.80;33.11;100819.06;5043156;28;20645;-65
2022/05/08 10:29:33;;;;;;;5.32;4.45;;;;;;;27.39;33.28;100821.97;5064245;28;20184;-64
2022/05/08 10:31:59;;;;;;;5.95;5.15;;;;;;;25.87;34.64;100810.75;5072109;28;20716;-64
2022/05/08 10:34:34;;;;;;;5.40;4.90;;;;;;;26.30;34.07;100803.41;5052898;28;20187;-64
2022/05/08 10:37:12;;;;;;;4.97;4.57;;;;;;;25.88;34.76;100809.75;5066270;28;20276;-63
2022/05/08 10:39:38;;;;;;;5.20;4.80;;;;;;;24.16;38.65;100807.38;5051104;28;20173;-63
2022/05/08 10:42:04;;;;;;;5.20;4.70;;;;;;;24.94;37.74;100805.59;5059466;28;20276;-64
2022/05/08 10:44:37;;;;;;;8.02;5.05;;;;;;;24.58;37.66;100803.09;5067035;28;20297;-64
2022/05/08 10:47:31;;;;;;;4.70;4.30;;;;;;;24.33;38.71;100810.88;5049518;28;20178;-64
2022/05/08 10:49:57;;;;;;;5.25;4.75;;;;;;;23.87;40.35;100802.38;5043506;28;20186;-64
2022/05/08 10:52:22;;;;;;;5.00;4.50;;;;;;;23.85;41.23;100791.19;5056458;28;20749;-65
2022/05/08 10:55:02;;;;;;;6.60;5.78;;;;;;;22.88;42.14;100804.94;5051178;28;20173;-64
2022/05/08 10:57:32;;;;;;;6.60;5.53;;;;;;;22.84;42.40;100797.50;5049191;28;20181;-64
2022/05/08 10:59:57;;;;;;;6.20;5.60;;;;;;;22.66;43.30;100795.66;5050992;28;20186;-64
2022/05/08 11:02:41;;;;;;;8.50;5.50;;;;;;;22.40;43.49;100787.63;5028576;28;20225;-64
2022/05/08 11:05:10;;;;;;;6.83;5.67;;;;;;;22.54;43.70;100787.16;5051356;28;20169;-64
2022/05/08 11:07:39;;;;;;;6.13;5.63;;;;;;;22.20;44.16;100787.69;5049238;28;20181;-64
2022/05/08 11:10:18;;;;;;;7.57;6.30;;;;;;;22.30;43.76;100789.44;5039715;28;20196;-63
2022/05/08 11:13:10;;;;;;;6.13;5.63;;;;;;;22.15;44.87;100783.84;5049673;28;20175;-63
2022/05/08 11:15:38;;;;;;;5.70;5.20;;;;;;;22.11;44.88;100787.72;5044804;28;20571;-64
2022/05/08 11:18:15;;;;;;;6.57;4.80;;;;;;;22.69;43.79;100789.31;5053892;28;20182;-63
2022/05/08 11:20:43;;;;;;;5.60;5.10;;;;;;;22.50;44.22;100783.19;5041630;28;20239;-63
2022/05/08 11:23:12;;;;;;;7.93;5.47;;;;;;;22.51;44.06;100782.22;5059889;28;20177;-64
2022/05/08 11:25:39;;;;;;;5.27;4.77;;;;;;;22.37;43.59;100777.41;5042823;28;20279;-63
2022/05/08 11:28:05;;;;;;;6.03;5.13;;;;;;;22.69;43.27;100778.81;5046000;28;20243;-64
2022/05/08 11:30:38;;;;;;;5.43;4.90;;;;;;;23.10;42.13;100787.13;5007514;28;20221;-64
2022/05/08 11:36:09;;;;;;;4.37;3.93;;;;;;;22.82;44.13;100788.94;5039464;28;20649;-62
2022/05/08 11:38:50;;;;;;;4.50;4.10;;;;;;;22.56;45.67;100772.13;5054659;28;20263;-64
2022/05/08 11:41:18;;;;;;;4.53;4.13;;;;;;;22.71;44.45;100776.84;5042565;28;20363;-64
2022/05/08 11:43:49;;;;;;;4.20;3.80;;;;;;;22.67;44.40;100770.25;5054031;28;20235;-64
2022/05/08 11:46:22;;;;;;;4.50;4.10;;;;;;;22.93;43.88;100769.56;5053955;28;20208;-63